createdAt,value
2019-01-13T00:01:07.231Z,100.00
2019-01-13T00:03:36.332Z,100.00
2019-01-13T00:06:05.543Z,100.00
2019-01-13T00:08:34.642Z,99.95
2019-01-13T00:11:03.727Z,99.74
2019-01-13T00:13:32.825Z,99.52
2019-01-13T00:16:01.901Z,99.67
2019-01-13T00:18:31.001Z,99.91
2019-01-13T00:21:00.085Z,99.93
2019-01-13T00:23:29.186Z,99.92
2019-01-13T00:25:58.265Z,99.96
2019-01-13T00:28:27.358Z,99.93
2019-01-13T00:30:56.455Z,100.00
2019-01-13T00:33:25.565Z,100.00
2019-01-13T00:35:54.660Z,99.94
2019-01-13T00:38:23.745Z,99.99
2019-01-13T00:40:52.833Z,99.88
2019-01-13T00:43:21.924Z,99.85
2019-01-13T00:45:51.017Z,99.69
2019-01-13T00:48:20.094Z,99.69
2019-01-13T00:50:49.195Z,99.88
2019-01-13T00:53:18.279Z,99.99
2019-01-13T00:55:47.378Z,99.54
2019-01-13T00:58:16.486Z,99.27
2019-01-13T01:00:45.581Z,99.06
2019-01-13T01:03:14.663Z,98.57
2019-01-13T01:05:43.774Z,98.56
2019-01-13T01:08:13.836Z,98.52
2019-01-13T01:10:42.953Z,98.55
2019-01-13T01:13:12.100Z,98.66
2019-01-13T01:15:41.201Z,98.41
2019-01-13T01:18:10.280Z,98.33
2019-01-13T01:20:39.384Z,98.28
2019-01-13T01:23:08.457Z,98.41
2019-01-13T01:25:37.579Z,98.52
2019-01-13T01:28:06.651Z,98.67
2019-01-13T01:30:35.736Z,98.59
2019-01-13T01:33:04.861Z,98.92
2019-01-13T01:35:33.955Z,99.36
2019-01-13T01:38:03.034Z,99.83
2019-01-13T01:40:32.128Z,100.00
2019-01-13T01:43:01.216Z,100.00
2019-01-13T01:45:30.315Z,100.00
2019-01-13T01:47:59.399Z,100.00
2019-01-13T01:50:28.503Z,100.00
2019-01-13T01:52:57.595Z,100.00
2019-01-13T01:55:26.674Z,100.00
2019-01-13T01:57:55.785Z,100.00
2019-01-13T02:00:25.871Z,100.00
2019-01-13T02:02:54.984Z,100.00
2019-01-13T02:05:24.072Z,100.00
2019-01-13T02:07:53.241Z,100.00
2019-01-13T02:10:23.892Z,100.00
2019-01-13T02:12:53.111Z,100.00
2019-01-13T02:15:24.610Z,100.00
2019-01-13T02:17:53.926Z,100.00
2019-01-13T02:20:23.628Z,100.00
2019-01-13T02:22:52.740Z,100.00
2019-01-13T02:25:26.903Z,100.00
2019-01-13T02:27:56.107Z,100.00
2019-01-13T02:30:26.456Z,100.00
2019-01-13T02:32:55.995Z,100.00
2019-01-13T02:35:25.238Z,100.00
2019-01-13T02:37:54.383Z,100.00
2019-01-13T02:40:23.646Z,100.00
2019-01-13T02:42:53.592Z,100.00
2019-01-13T02:45:27.837Z,100.00
2019-01-13T02:47:56.958Z,100.00
2019-01-13T02:50:26.036Z,100.00
2019-01-13T02:52:55.433Z,100.00
2019-01-13T02:55:24.520Z,100.00
2019-01-13T02:57:53.636Z,100.00
2019-01-13T03:00:26.716Z,100.00
2019-01-13T03:02:55.817Z,100.00
2019-01-13T03:05:24.934Z,100.00
2019-01-13T03:07:54.027Z,100.00
2019-01-13T03:10:24.978Z,100.00
2019-01-13T03:12:54.348Z,100.00
2019-01-13T03:15:26.859Z,100.00
2019-01-13T03:17:56.094Z,100.00
2019-01-13T03:20:25.197Z,100.00
2019-01-13T03:22:54.284Z,100.00
2019-01-13T03:25:24.290Z,100.00
2019-01-13T03:27:53.417Z,100.00
2019-01-13T03:30:23.889Z,100.00
2019-01-13T03:32:52.999Z,100.00
2019-01-13T03:35:22.104Z,100.00
2019-01-13T03:37:51.191Z,100.00
2019-01-13T03:40:22.326Z,100.00
2019-01-13T03:42:51.550Z,100.00
2019-01-13T03:45:20.737Z,100.00
2019-01-13T03:47:49.808Z,100.00
2019-01-13T03:50:20.596Z,100.00
2019-01-13T03:52:53.309Z,100.00
2019-01-13T03:55:22.207Z,100.00
2019-01-13T03:57:51.292Z,100.00
2019-01-13T04:00:22.606Z,100.00
2019-01-13T04:02:51.721Z,100.00
2019-01-13T04:05:20.929Z,100.00
2019-01-13T04:07:49.999Z,100.00
2019-01-13T04:10:19.432Z,100.00
2019-01-13T04:12:48.626Z,100.00
2019-01-13T04:16:01.110Z,100.00
2019-01-13T04:18:30.300Z,100.00
2019-01-13T04:20:59.654Z,100.00
2019-01-13T04:23:28.750Z,100.00
2019-01-13T04:25:57.858Z,100.00
2019-01-13T04:28:26.945Z,100.00
2019-01-13T04:30:56.063Z,100.00
2019-01-13T04:33:25.161Z,100.00
2019-01-13T04:35:54.272Z,100.00
2019-01-13T04:38:23.378Z,100.00
2019-01-13T04:40:52.494Z,100.00
2019-01-13T04:43:21.576Z,100.00
2019-01-13T04:45:50.682Z,100.00
2019-01-13T04:48:19.773Z,100.00
2019-01-13T04:50:48.900Z,100.00
2019-01-13T04:53:17.996Z,100.00
2019-01-13T04:55:47.109Z,100.00
2019-01-13T04:58:16.305Z,100.00
2019-01-13T05:00:45.420Z,100.00
2019-01-13T05:03:14.514Z,100.00
2019-01-13T05:05:43.638Z,100.00
2019-01-13T05:08:12.728Z,100.00
2019-01-13T05:10:41.850Z,100.00
2019-01-13T05:13:10.946Z,100.00
2019-01-13T05:15:40.041Z,100.00
2019-01-13T05:18:09.173Z,100.00
2019-01-13T05:20:40.201Z,100.00
2019-01-13T05:23:09.108Z,100.00
2019-01-13T05:25:38.188Z,100.00
2019-01-13T05:28:07.303Z,100.00
2019-01-13T05:30:36.385Z,100.00
2019-01-13T05:33:05.509Z,100.00
2019-01-13T05:35:34.598Z,100.00
2019-01-13T05:38:03.709Z,100.00
2019-01-13T05:40:32.799Z,100.00
2019-01-13T05:43:01.903Z,100.00
2019-01-13T05:45:30.963Z,100.00
2019-01-13T05:48:00.076Z,100.00
2019-01-13T05:50:29.159Z,100.00
2019-01-13T05:52:58.268Z,100.00
2019-01-13T05:55:27.416Z,100.00
2019-01-13T05:57:56.519Z,100.00
2019-01-13T06:00:27.537Z,100.00
2019-01-13T06:02:56.646Z,100.00
2019-01-13T06:05:25.737Z,100.00
2019-01-13T06:07:54.840Z,100.00
2019-01-13T06:10:23.933Z,100.00
2019-01-13T06:12:53.030Z,100.00
2019-01-13T06:15:23.777Z,100.00
2019-01-13T06:17:52.871Z,100.00
2019-01-13T06:20:23.717Z,100.00
2019-01-13T06:22:52.839Z,100.00
2019-01-13T06:25:21.943Z,100.00
2019-01-13T06:27:51.047Z,100.00
2019-01-13T06:30:21.992Z,100.00
2019-01-13T06:32:51.526Z,100.00
2019-01-13T06:35:20.644Z,100.00
2019-01-13T06:37:49.835Z,100.00
2019-01-13T06:40:20.638Z,100.00
2019-01-13T06:42:49.739Z,100.00
2019-01-13T06:45:26.604Z,100.00
2019-01-13T06:47:55.709Z,100.00
2019-01-13T06:50:25.991Z,100.00
2019-01-13T06:52:55.095Z,100.00
2019-01-13T06:55:24.171Z,100.00
2019-01-13T06:57:53.275Z,100.00
2019-01-13T07:00:26.738Z,100.00
2019-01-13T07:02:56.310Z,100.00
2019-01-13T07:05:25.391Z,100.00
2019-01-13T07:07:54.512Z,100.00
2019-01-13T07:10:23.647Z,100.00
2019-01-13T07:12:52.757Z,100.00
2019-01-13T07:15:22.071Z,100.00
2019-01-13T07:17:51.152Z,100.00
2019-01-13T07:20:21.311Z,100.00
2019-01-13T07:22:50.601Z,100.00
2019-01-13T07:25:19.722Z,100.00
2019-01-13T07:27:48.819Z,100.00
2019-01-13T07:30:22.971Z,100.00
2019-01-13T07:32:52.161Z,100.00
2019-01-13T07:35:21.212Z,100.00
2019-01-13T07:37:50.306Z,100.00
2019-01-13T07:40:21.037Z,100.00
2019-01-13T07:42:50.145Z,100.00
2019-01-13T07:45:23.927Z,100.00
2019-01-13T07:47:53.006Z,100.00
2019-01-13T07:50:22.217Z,100.00
2019-01-13T07:52:51.308Z,100.00
2019-01-13T07:55:21.846Z,100.00
2019-01-13T07:57:50.950Z,100.00
2019-01-13T08:00:22.123Z,100.00
2019-01-13T08:02:51.220Z,100.00
2019-01-13T08:05:20.320Z,100.00
2019-01-13T08:07:49.516Z,100.00
2019-01-13T08:10:18.622Z,100.00
2019-01-13T08:12:47.705Z,100.00
2019-01-13T08:15:18.403Z,100.00
2019-01-13T08:17:47.494Z,100.00
2019-01-13T08:20:20.048Z,100.00
2019-01-13T08:22:49.135Z,100.00
2019-01-13T08:25:18.242Z,100.00
2019-01-13T08:27:47.315Z,100.00
2019-01-13T08:30:17.871Z,100.00
2019-01-13T08:32:46.974Z,100.00
2019-01-13T08:35:16.086Z,100.00
2019-01-13T08:37:45.159Z,100.00
2019-01-13T08:40:16.547Z,100.00
2019-01-13T08:42:45.631Z,100.00
2019-01-13T08:45:15.009Z,100.00
2019-01-13T08:47:44.102Z,100.00
2019-01-13T08:50:18.589Z,100.00
2019-01-13T08:52:47.999Z,100.00
2019-01-13T08:55:18.092Z,100.00
2019-01-13T08:57:47.282Z,100.00
2019-01-13T09:00:27.306Z,100.00
2019-01-13T09:02:56.401Z,100.00
2019-01-13T09:05:25.771Z,100.00
2019-01-13T09:07:54.856Z,100.00
2019-01-13T09:10:23.966Z,100.00
2019-01-13T09:12:56.985Z,100.00
2019-01-13T09:15:24.550Z,100.00
2019-01-13T09:17:53.640Z,100.00
2019-01-13T09:20:24.896Z,100.00
2019-01-13T09:22:53.993Z,100.00
2019-01-13T09:25:23.234Z,100.00
2019-01-13T09:27:52.680Z,100.00
2019-01-13T09:30:23.806Z,100.00
2019-01-13T09:32:52.969Z,100.00
2019-01-13T09:35:22.080Z,100.00
2019-01-13T09:37:51.287Z,100.00
2019-01-13T09:40:23.479Z,100.00
2019-01-13T09:42:52.701Z,100.00
2019-01-13T09:45:22.472Z,100.00
2019-01-13T09:47:51.580Z,100.00
2019-01-13T09:50:21.283Z,100.00
2019-01-13T09:52:50.382Z,100.00
2019-01-13T09:55:20.322Z,100.00
2019-01-13T09:57:49.431Z,100.00
2019-01-13T10:00:27.393Z,100.00
2019-01-13T10:02:56.511Z,100.00
2019-01-13T10:05:25.594Z,100.00
2019-01-13T10:07:54.701Z,100.00
2019-01-13T10:10:23.787Z,100.00
2019-01-13T10:12:52.998Z,100.00
2019-01-13T10:15:22.625Z,100.00
2019-01-13T10:17:52.629Z,100.00
2019-01-13T10:20:21.719Z,100.00
2019-01-13T10:22:50.835Z,100.00
2019-01-13T10:25:19.920Z,100.00
2019-01-13T10:27:49.023Z,100.00
2019-01-13T10:30:20.660Z,100.00
2019-01-13T10:32:54.585Z,100.00
2019-01-13T10:35:20.589Z,100.00
2019-01-13T10:37:51.446Z,100.00
2019-01-13T10:40:21.695Z,100.00
2019-01-13T10:42:50.903Z,100.00
2019-01-13T10:45:19.994Z,100.00
2019-01-13T10:47:49.100Z,100.00
2019-01-13T10:50:23.242Z,100.00
2019-01-13T10:52:53.044Z,100.00
2019-01-13T10:55:22.256Z,100.00
2019-01-13T10:57:51.367Z,100.00
2019-01-13T11:00:22.918Z,100.00
2019-01-13T11:02:52.035Z,100.00
2019-01-13T11:05:21.117Z,100.00
2019-01-13T11:07:51.823Z,100.00
2019-01-13T11:10:20.899Z,100.00
2019-01-13T11:12:50.004Z,100.00
2019-01-13T11:15:21.894Z,100.00
2019-01-13T11:17:50.549Z,100.00
2019-01-13T11:20:22.044Z,100.00
2019-01-13T11:22:51.138Z,100.00
2019-01-13T11:25:20.359Z,100.00
2019-01-13T11:27:49.486Z,100.00
2019-01-13T11:30:20.254Z,100.00
2019-01-13T11:32:49.374Z,100.00
2019-01-13T11:35:18.449Z,100.00
2019-01-13T11:37:48.110Z,100.00
2019-01-13T11:40:21.958Z,100.00
2019-01-13T11:42:51.035Z,100.00
2019-01-13T11:45:20.151Z,100.00
2019-01-13T11:47:49.235Z,100.00
2019-01-13T11:50:19.914Z,100.00
2019-01-13T11:52:49.046Z,100.00
2019-01-13T11:55:18.544Z,100.00
2019-01-13T11:57:47.826Z,100.00
2019-01-13T12:00:19.287Z,100.00
2019-01-13T12:02:48.371Z,100.00
2019-01-13T12:05:17.621Z,100.00
2019-01-13T12:07:47.418Z,100.00
2019-01-13T12:10:18.093Z,100.00
2019-01-13T12:12:47.501Z,100.00
2019-01-13T12:15:17.358Z,100.00
2019-01-13T12:17:46.558Z,100.00
2019-01-13T12:20:17.524Z,100.00
2019-01-13T12:22:46.742Z,100.00
2019-01-13T12:25:17.467Z,100.00
2019-01-13T12:27:46.926Z,100.00
2019-01-13T12:30:22.121Z,100.00
2019-01-13T12:32:51.344Z,100.00
2019-01-13T12:35:21.903Z,100.00
2019-01-13T12:37:51.146Z,100.00
2019-01-13T12:40:22.355Z,100.00
2019-01-13T12:42:51.517Z,100.00
2019-01-13T12:45:21.806Z,100.00
2019-01-13T12:47:51.205Z,100.00
2019-01-13T12:50:25.024Z,100.00
2019-01-13T12:52:54.115Z,100.00
2019-01-13T12:55:23.237Z,100.00
2019-01-13T12:57:52.316Z,100.00
2019-01-13T13:00:24.112Z,100.00
2019-01-13T13:02:53.372Z,100.00
2019-01-13T13:05:22.494Z,100.00
2019-01-13T13:07:51.575Z,100.00
2019-01-13T13:10:35.502Z,100.00
2019-01-13T13:13:05.027Z,100.00
2019-01-13T13:15:34.140Z,100.00
2019-01-13T13:18:03.229Z,100.00
2019-01-13T13:20:32.331Z,100.00
2019-01-13T13:23:02.039Z,100.00
2019-01-13T13:25:31.983Z,100.00
2019-01-13T13:28:01.235Z,100.00
2019-01-13T13:30:30.366Z,100.00
2019-01-13T13:32:59.478Z,100.00
2019-01-13T13:35:28.615Z,100.00
2019-01-13T13:37:57.859Z,100.00
2019-01-13T13:40:26.991Z,100.00
2019-01-13T13:42:56.093Z,100.00
2019-01-13T13:45:25.493Z,100.00
2019-01-13T13:47:54.687Z,100.00
2019-01-13T13:50:24.979Z,100.00
2019-01-13T13:52:54.294Z,100.00
2019-01-13T13:55:23.428Z,100.00
2019-01-13T13:57:52.530Z,100.00
2019-01-13T14:00:23.819Z,100.00
2019-01-13T14:02:53.070Z,100.00
2019-01-13T14:05:22.675Z,100.00
2019-01-13T14:07:51.776Z,100.00
2019-01-13T14:10:23.484Z,100.00
2019-01-13T14:12:52.594Z,100.00
2019-01-13T14:15:21.680Z,100.00
2019-01-13T14:17:50.781Z,100.00
2019-01-13T14:20:19.990Z,100.00
2019-01-13T14:22:49.118Z,100.00
2019-01-13T14:25:18.192Z,100.00
2019-01-13T14:27:47.297Z,100.00
2019-01-13T14:30:24.061Z,100.00
2019-01-13T14:32:53.210Z,100.00
2019-01-13T14:35:22.623Z,100.00
2019-01-13T14:37:51.831Z,100.00
2019-01-13T14:40:22.616Z,100.00
2019-01-13T14:42:51.839Z,100.00
2019-01-13T14:45:22.999Z,100.00
2019-01-13T14:47:52.108Z,100.00
2019-01-13T14:50:23.261Z,100.00
2019-01-13T14:52:53.092Z,100.00
2019-01-13T14:55:22.171Z,100.00
2019-01-13T14:57:51.465Z,100.00
2019-01-13T15:00:25.686Z,100.00
2019-01-13T15:02:54.894Z,100.00
2019-01-13T15:05:23.985Z,100.00
2019-01-13T15:07:53.127Z,100.00
2019-01-13T15:10:22.875Z,100.00
2019-01-13T15:12:51.976Z,100.00
2019-01-13T15:15:21.066Z,100.00
2019-01-13T15:17:50.166Z,100.00
2019-01-13T15:20:41.007Z,100.00
2019-01-13T15:23:10.213Z,100.00
2019-01-13T15:25:39.308Z,100.00
2019-01-13T15:28:08.416Z,100.00
2019-01-13T15:30:38.601Z,100.00
2019-01-13T15:33:09.070Z,100.00
2019-01-13T15:35:38.291Z,100.00
2019-01-13T15:38:08.356Z,100.00
2019-01-13T15:40:37.443Z,100.00
2019-01-13T15:43:06.768Z,100.00
2019-01-13T15:45:35.852Z,100.00
2019-01-13T15:48:05.632Z,100.00
2019-01-13T15:50:34.713Z,100.00
2019-01-13T15:53:04.006Z,100.00
2019-01-13T15:55:33.097Z,100.00
2019-01-13T15:58:02.200Z,100.00
2019-01-13T16:00:35.784Z,100.00
2019-01-13T16:03:06.357Z,100.00
2019-01-13T16:05:35.454Z,100.00
2019-01-13T16:08:04.538Z,100.00
2019-01-13T16:10:33.640Z,100.00
2019-01-13T16:13:02.731Z,100.00
2019-01-13T16:15:34.474Z,100.00
2019-01-13T16:18:02.656Z,100.00
2019-01-13T16:20:49.606Z,100.00
2019-01-13T16:23:18.686Z,100.00
2019-01-13T16:25:47.792Z,100.00
2019-01-13T16:28:16.870Z,100.00
2019-01-13T16:30:45.974Z,100.00
2019-01-13T16:33:15.053Z,100.00
2019-01-13T16:35:44.174Z,100.00
2019-01-13T16:38:13.258Z,100.00
2019-01-13T16:40:42.363Z,100.00
2019-01-13T16:43:11.455Z,100.00
2019-01-13T16:45:40.555Z,100.00
2019-01-13T16:48:09.640Z,100.00
2019-01-13T16:50:38.751Z,100.00
2019-01-13T16:53:07.830Z,100.00
2019-01-13T16:55:36.931Z,100.00
2019-01-13T16:58:06.135Z,100.00
2019-01-13T17:00:35.245Z,100.00
2019-01-13T17:03:04.471Z,100.00
2019-01-13T17:05:33.588Z,100.00
2019-01-13T17:08:02.667Z,100.00
2019-01-13T17:10:31.763Z,100.00
2019-01-13T17:13:00.847Z,100.00
2019-01-13T17:15:37.141Z,100.00
2019-01-13T17:18:07.593Z,100.00
2019-01-13T17:20:36.811Z,100.00
2019-01-13T17:23:05.896Z,100.00
2019-01-13T17:25:35.132Z,100.00
2019-01-13T17:28:04.538Z,100.00
2019-01-13T17:30:35.299Z,100.00
2019-01-13T17:33:05.102Z,100.00
2019-01-13T17:35:34.238Z,100.00
2019-01-13T17:38:03.443Z,100.00
2019-01-13T17:40:32.770Z,100.00
2019-01-13T17:43:01.854Z,100.00
2019-01-13T17:45:32.484Z,100.00
2019-01-13T17:48:01.620Z,100.00
2019-01-13T17:50:30.718Z,100.00
2019-01-13T17:52:59.814Z,100.00
2019-01-13T17:55:30.299Z,100.00
2019-01-13T17:57:59.773Z,100.00
2019-01-13T18:00:52.028Z,100.00
2019-01-13T18:03:31.361Z,100.00
2019-01-13T18:06:00.467Z,100.00
2019-01-13T18:08:29.581Z,100.00
2019-01-13T18:10:58.665Z,100.00
2019-01-13T18:13:27.771Z,100.00
2019-01-13T18:15:56.918Z,100.00
2019-01-13T18:18:26.015Z,100.00
2019-01-13T18:20:55.100Z,100.00
2019-01-13T18:23:24.202Z,100.00
2019-01-13T18:25:53.290Z,100.00
2019-01-13T18:28:23.892Z,100.00
2019-01-13T18:30:53.067Z,100.00
2019-01-13T18:33:22.234Z,100.00
2019-01-13T18:35:51.298Z,99.86
2019-01-13T18:38:20.399Z,100.00
2019-01-13T18:40:49.481Z,98.91
2019-01-13T18:43:18.596Z,98.26
2019-01-13T18:45:47.759Z,97.36
2019-01-13T18:48:16.858Z,97.89
2019-01-13T18:50:45.938Z,98.13
2019-01-13T18:53:15.948Z,98.20
2019-01-13T18:55:45.028Z,98.19
2019-01-13T18:58:14.129Z,97.09
2019-01-13T19:00:43.202Z,98.16
2019-01-13T19:03:12.305Z,97.53
2019-01-13T19:05:41.382Z,97.70
2019-01-13T19:08:10.486Z,98.53
2019-01-13T19:10:52.357Z,98.03
2019-01-13T19:13:42.087Z,98.41
2019-01-13T19:16:13.890Z,97.35
2019-01-13T19:18:43.007Z,97.08
2019-01-13T19:21:12.092Z,97.50
2019-01-13T19:23:41.207Z,98.30
2019-01-13T19:26:10.287Z,98.17
2019-01-13T19:28:39.386Z,98.47
2019-01-13T19:31:08.473Z,97.57
2019-01-13T19:33:37.943Z,97.92
2019-01-13T19:36:09.668Z,98.74
2019-01-13T19:38:39.847Z,98.63
2019-01-13T19:41:09.236Z,98.56
2019-01-13T19:43:39.021Z,99.17
2019-01-13T19:46:08.988Z,98.74
2019-01-13T19:48:38.917Z,98.35
2019-01-13T19:51:08.670Z,97.71
2019-01-13T19:53:38.674Z,97.54
2019-01-13T19:56:08.119Z,96.64
2019-01-13T19:58:37.817Z,97.67
2019-01-13T20:01:07.513Z,96.89
2019-01-13T20:03:36.622Z,96.62
2019-01-13T20:06:06.011Z,96.58
2019-01-13T20:08:35.687Z,96.11
2019-01-13T20:11:05.669Z,96.13
2019-01-13T20:13:35.713Z,94.74
2019-01-13T20:16:05.646Z,94.54
2019-01-13T20:18:34.744Z,94.00
2019-01-13T20:21:03.818Z,93.35
2019-01-13T20:23:34.064Z,92.96
2019-01-13T20:26:04.530Z,92.92
2019-01-13T20:28:34.472Z,92.38
2019-01-13T20:31:04.653Z,92.00
2019-01-13T20:33:34.806Z,91.73
2019-01-13T20:36:05.381Z,92.67
2019-01-13T20:38:35.302Z,92.66
2019-01-13T20:41:05.384Z,94.03
2019-01-13T20:43:35.335Z,95.27
2019-01-13T20:46:05.226Z,94.71
2019-01-13T20:48:36.198Z,95.78
2019-01-13T20:51:05.598Z,97.05
2019-01-13T20:53:34.920Z,96.52
2019-01-13T20:56:04.162Z,96.70
2019-01-13T20:58:34.550Z,96.79
2019-01-13T21:01:04.584Z,97.29
2019-01-13T21:03:33.659Z,96.67
2019-01-13T21:06:03.266Z,95.79
2019-01-13T21:08:32.346Z,94.63
2019-01-13T21:11:01.709Z,94.54
2019-01-13T21:13:31.871Z,95.23
2019-01-13T21:16:02.322Z,96.08
2019-01-13T21:18:31.403Z,96.72
2019-01-13T21:21:00.504Z,96.67
2019-01-13T21:23:29.580Z,97.55
2019-01-13T21:25:58.679Z,98.08
2019-01-13T21:28:27.850Z,98.55
2019-01-13T21:30:56.962Z,98.57
2019-01-13T21:33:26.081Z,100.00
2019-01-13T21:35:55.214Z,100.00
2019-01-13T21:38:24.325Z,100.00
2019-01-13T21:40:53.450Z,100.00
2019-01-13T21:43:22.535Z,100.00
2019-01-13T21:45:51.626Z,100.00
2019-01-13T21:48:20.739Z,100.00
2019-01-13T21:50:49.824Z,100.00
2019-01-13T21:53:18.945Z,100.00
2019-01-13T21:55:48.026Z,100.00
2019-01-13T21:58:17.140Z,100.00
2019-01-13T22:00:46.225Z,100.00
2019-01-13T22:03:15.332Z,100.00
2019-01-13T22:05:44.418Z,100.00
2019-01-13T22:08:13.522Z,100.00
2019-01-13T22:10:42.605Z,100.00
2019-01-13T22:13:11.703Z,100.00
2019-01-13T22:15:40.792Z,100.00
2019-01-13T22:18:09.904Z,100.00
2019-01-13T22:20:38.995Z,100.00
2019-01-13T22:23:08.094Z,100.00
2019-01-13T22:25:37.178Z,100.00
2019-01-13T22:28:06.292Z,100.00
2019-01-13T22:30:35.371Z,100.00
2019-01-13T22:33:04.578Z,100.00
2019-01-13T22:35:33.683Z,100.00
2019-01-13T22:38:02.778Z,100.00
2019-01-13T22:40:31.849Z,100.00
2019-01-13T22:43:00.951Z,100.00
2019-01-13T22:45:30.048Z,100.00
2019-01-13T22:47:59.148Z,98.20
2019-01-13T22:50:28.222Z,98.37
2019-01-13T22:52:57.319Z,97.16
2019-01-13T22:55:26.410Z,97.40
2019-01-13T22:57:55.511Z,97.20
2019-01-13T23:01:06.611Z,96.44
2019-01-13T23:03:35.985Z,96.31
2019-01-13T23:06:05.372Z,95.45
2019-01-13T23:08:34.474Z,94.59
2019-01-13T23:11:03.546Z,95.02
2019-01-13T23:13:32.641Z,94.30
2019-01-13T23:16:01.713Z,93.53
2019-01-13T23:18:30.814Z,93.78
2019-01-13T23:20:59.887Z,94.36
2019-01-13T23:23:28.992Z,94.78
2019-01-13T23:25:58.073Z,93.97
2019-01-13T23:28:27.169Z,93.94
2019-01-13T23:30:56.246Z,92.98
2019-01-13T23:33:25.346Z,94.21
2019-01-13T23:35:54.448Z,93.33
2019-01-13T23:38:23.567Z,93.93
2019-01-13T23:40:52.628Z,92.42
2019-01-13T23:43:21.821Z,93.03
2019-01-13T23:45:50.907Z,93.37
2019-01-13T23:48:20.024Z,94.34
2019-01-13T23:50:49.118Z,93.53
2019-01-13T23:53:18.197Z,94.18
2019-01-13T23:55:47.293Z,94.95
2019-01-13T23:58:16.361Z,95.44
